sensor_id;sensor_type;location;lat;lon;timestamp;pressure;altitude;pressure_sealevel;temperature;humidity
32033;BME280;31720;52.638;9.216;2023-07-31T00:01:30;100668.19;;;16.59;100.00
32033;BME280;31720;52.638;9.216;2023-07-31T00:04:31;100667.22;;;16.60;100.00
32033;BME280;31720;52.638;9.216;2023-07-31T00:07:34;100660.22;;;16.59;100.00
32033;BME280;31720;52.638;9.216;2023-07-31T00:10:35;100665.78;;;16.56;100.00
32033;BME280;31720;52.638;9.216;2023-07-31T00:13:36;100653.00;;;16.50;100.00
32033;BME280;31720;52.638;9.216;2023-07-31T00:16:38;100641.66;;;16.48;100.00
32033;BME280;31720;52.638;9.216;2023-07-31T00:19:39;100635.97;;;16.53;100.00
32033;BME280;31720;52.638;9.216;2023-07-31T00:22:42;100638.91;;;16.49;100.00
32033;BME280;31720;52.638;9.216;2023-07-31T00:25:43;100631.50;;;16.53;100.00
32033;BME280;31720;52.638;9.216;2023-07-31T00:28:45;100621.66;;;16.55;100.00
32033;BME280;31720;52.638;9.216;2023-07-31T00:31:46;100614.53;;;16.56;100.00
32033;BME280;31720;52.638;9.216;2023-07-31T00:34:47;100605.97;;;16.52;100.00
32033;BME280;31720;52.638;9.216;2023-07-31T00:37:50;100598.97;;;16.51;100.00
32033;BME280;31720;52.638;9.216;2023-07-31T00:40:52;100591.38;;;16.46;100.00
32033;BME280;31720;52.638;9.216;2023-07-31T00:43:53;100580.31;;;16.41;100.00
32033;BME280;31720;52.638;9.216;2023-07-31T00:46:55;100589.94;;;16.42;100.00
32033;BME280;31720;52.638;9.216;2023-07-31T00:49:58;100591.06;;;16.40;100.00
32033;BME280;31720;52.638;9.216;2023-07-31T00:53:01;100601.53;;;16.30;100.00
32033;BME280;31720;52.638;9.216;2023-07-31T00:56:03;100600.47;;;16.21;100.00
32033;BME280;31720;52.638;9.216;2023-07-31T00:59:05;100601.66;;;16.29;100.00
32033;BME280;31720;52.638;9.216;2023-07-31T01:02:06;100591.41;;;16.24;100.00
32033;BME280;31720;52.638;9.216;2023-07-31T01:05:08;100595.28;;;16.20;100.00
32033;BME280;31720;52.638;9.216;2023-07-31T01:08:18;100599.50;;;16.11;100.00
32033;BME280;31720;52.638;9.216;2023-07-31T01:11:27;100589.97;;;16.20;100.00
32033;BME280;31720;52.638;9.216;2023-07-31T01:14:29;100589.97;;;16.20;100.00
32033;BME280;31720;52.638;9.216;2023-07-31T01:17:31;100592.63;;;16.20;100.00
32033;BME280;31720;52.638;9.216;2023-07-31T01:20:33;100590.22;;;16.06;100.00
32033;BME280;31720;52.638;9.216;2023-07-31T01:24:01;100588.16;;;16.20;100.00
32033;BME280;31720;52.638;9.216;2023-07-31T01:27:12;100582.84;;;16.20;100.00
32033;BME280;31720;52.638;9.216;2023-07-31T01:30:16;100581.41;;;16.16;100.00
32033;BME280;31720;52.638;9.216;2023-07-31T01:33:21;100572.00;;;16.23;100.00
32033;BME280;31720;52.638;9.216;2023-07-31T01:36:23;100572.38;;;16.19;100.00
32033;BME280;31720;52.638;9.216;2023-07-31T01:39:24;100576.25;;;16.26;100.00
32033;BME280;31720;52.638;9.216;2023-07-31T01:42:27;100571.03;;;16.24;100.00
32033;BME280;31720;52.638;9.216;2023-07-31T01:45:29;100572.16;;;16.22;100.00
32033;BME280;31720;52.638;9.216;2023-07-31T01:48:30;100572.88;;;16.13;100.00
32033;BME280;31720;52.638;9.216;2023-07-31T01:51:35;100568.03;;;16.07;100.00
32033;BME280;31720;52.638;9.216;2023-07-31T01:54:37;100562.50;;;15.98;100.00
32033;BME280;31720;52.638;9.216;2023-07-31T01:57:39;100566.38;;;16.06;100.00
32033;BME280;31720;52.638;9.216;2023-07-31T02:00:41;100563.22;;;16.12;100.00
32033;BME280;31720;52.638;9.216;2023-07-31T02:03:42;100556.25;;;16.00;100.00
32033;BME280;31720;52.638;9.216;2023-07-31T02:06:44;100556.50;;;15.96;100.00
32033;BME280;31720;52.638;9.216;2023-07-31T02:09:45;100554.69;;;15.86;100.00
32033;BME280;31720;52.638;9.216;2023-07-31T02:12:49;100544.91;;;15.97;100.00
32033;BME280;31720;52.638;9.216;2023-07-31T02:15:50;100543.25;;;15.96;100.00
32033;BME280;31720;52.638;9.216;2023-07-31T02:18:52;100540.81;;;15.93;100.00
32033;BME280;31720;52.638;9.216;2023-07-31T02:21:53;100543.94;;;15.98;100.00
32033;BME280;31720;52.638;9.216;2023-07-31T02:24:54;100535.78;;;15.90;100.00
32033;BME280;31720;52.638;9.216;2023-07-31T02:27:57;100538.91;;;15.95;100.00
32033;BME280;31720;52.638;9.216;2023-07-31T02:30:59;100536.00;;;15.98;100.00
32033;BME280;31720;52.638;9.216;2023-07-31T02:34:00;100536.72;;;16.01;100.00
32033;BME280;31720;52.638;9.216;2023-07-31T02:37:01;100532.03;;;15.93;100.00
32033;BME280;31720;52.638;9.216;2023-07-31T02:40:03;100527.47;;;15.95;100.00
32033;BME280;31720;52.638;9.216;2023-07-31T02:43:06;100529.84;;;15.98;100.00
32033;BME280;31720;52.638;9.216;2023-07-31T02:46:08;100530.81;;;15.97;100.00
32033;BME280;31720;52.638;9.216;2023-07-31T02:49:09;100529.75;;;16.00;100.00
32033;BME280;31720;52.638;9.216;2023-07-31T02:52:11;100527.19;;;15.98;100.00
32033;BME280;31720;52.638;9.216;2023-07-31T02:55:12;100521.53;;;16.03;100.00
32033;BME280;31720;52.638;9.216;2023-07-31T02:58:15;100527.44;;;16.06;100.00
32033;BME280;31720;52.638;9.216;2023-07-31T03:01:16;100522.88;;;16.08;100.00
32033;BME280;31720;52.638;9.216;2023-07-31T03:04:18;100527.69;;;16.03;100.00
32033;BME280;31720;52.638;9.216;2023-07-31T03:07:19;100520.59;;;15.92;100.00
32033;BME280;31720;52.638;9.216;2023-07-31T03:10:20;100530.69;;;15.98;100.00
32033;BME280;31720;52.638;9.216;2023-07-31T03:13:23;100518.19;;;16.01;100.00
32033;BME280;31720;52.638;9.216;2023-07-31T03:16:25;100519.00;;;16.01;100.00
32033;BME280;31720;52.638;9.216;2023-07-31T03:19:26;100513.09;;;15.97;100.00
32033;BME280;31720;52.638;9.216;2023-07-31T03:22:27;100522.50;;;16.02;100.00
32033;BME280;31720;52.638;9.216;2023-07-31T03:25:29;100509.38;;;16.00;100.00
32033;BME280;31720;52.638;9.216;2023-07-31T03:28:31;100513.34;;;16.06;100.00
32033;BME280;31720;52.638;9.216;2023-07-31T03:31:33;100505.28;;;15.96;100.00
32033;BME280;31720;52.638;9.216;2023-07-31T03:34:34;100513.09;;;15.97;100.00
32033;BME280;31720;52.638;9.216;2023-07-31T03:37:36;100502.63;;;15.96;100.00
32033;BME280;31720;52.638;9.216;2023-07-31T03:40:38;100496.97;;;16.01;100.00
32033;BME280;31720;52.638;9.216;2023-07-31T03:43:40;100503.47;;;15.96;100.00
32033;BME280;31720;52.638;9.216;2023-07-31T03:46:42;100501.44;;;16.00;100.00
32033;BME280;31720;52.638;9.216;2023-07-31T03:49:43;100500.69;;;15.98;100.00
32033;BME280;31720;52.638;9.216;2023-07-31T03:52:45;100502.41;;;15.88;100.00
32033;BME280;31720;52.638;9.216;2023-07-31T03:55:46;100499.16;;;15.84;100.00
32033;BME280;31720;52.638;9.216;2023-07-31T03:58:49;100487.59;;;15.85;100.00
32033;BME280;31720;52.638;9.216;2023-07-31T04:01:50;100487.34;;;15.88;100.00
32033;BME280;31720;52.638;9.216;2023-07-31T04:04:52;100486.50;;;15.88;100.00
32033;BME280;31720;52.638;9.216;2023-07-31T04:07:53;100488.91;;;15.91;100.00
32033;BME280;31720;52.638;9.216;2023-07-31T04:10:54;100503.50;;;15.74;100.00
32033;BME280;31720;52.638;9.216;2023-07-31T04:13:57;100497.00;;;15.67;100.00
32033;BME280;31720;52.638;9.216;2023-07-31T04:16:59;100500.38;;;15.69;100.00
32033;BME280;31720;52.638;9.216;2023-07-31T04:20:00;100495.19;;;15.67;100.00
32033;BME280;31720;52.638;9.216;2023-07-31T04:23:01;100491.06;;;15.63;100.00
32033;BME280;31720;52.638;9.216;2023-07-31T04:26:03;100489.28;;;15.64;100.00
32033;BME280;31720;52.638;9.216;2023-07-31T04:29:06;100487.94;;;15.58;100.00
32033;BME280;31720;52.638;9.216;2023-07-31T04:32:07;100492.38;;;15.58;100.00
32033;BME280;31720;52.638;9.216;2023-07-31T04:35:08;100489.50;;;15.61;100.00
32033;BME280;31720;52.638;9.216;2023-07-31T04:38:10;100487.81;;;15.60;100.00
32033;BME280;31720;52.638;9.216;2023-07-31T04:41:11;100485.16;;;15.60;100.00
32033;BME280;31720;52.638;9.216;2023-07-31T04:44:14;100478.69;;;15.64;100.00
32033;BME280;31720;52.638;9.216;2023-07-31T04:47:15;100477.34;;;15.58;100.00
32033;BME280;31720;52.638;9.216;2023-07-31T04:50:17;100473.84;;;15.58;100.00
32033;BME280;31720;52.638;9.216;2023-07-31T04:53:18;100460.50;;;15.59;100.00
32033;BME280;31720;52.638;9.216;2023-07-31T04:56:20;100456.88;;;15.60;100.00
32033;BME280;31720;52.638;9.216;2023-07-31T04:59:23;100466.00;;;15.56;100.00
32033;BME280;31720;52.638;9.216;2023-07-31T05:02:24;100459.38;;;15.62;100.00
32033;BME280;31720;52.638;9.216;2023-07-31T05:05:25;100455.56;;;15.55;100.00
32033;BME280;31720;52.638;9.216;2023-07-31T05:08:27;100451.47;;;15.51;100.00
32033;BME280;31720;52.638;9.216;2023-07-31T05:11:28;100447.13;;;15.50;100.00
32033;BME280;31720;52.638;9.216;2023-07-31T05:14:31;100447.47;;;15.56;100.00
32033;BME280;31720;52.638;9.216;2023-07-31T05:17:32;100450.72;;;15.48;100.00
32033;BME280;31720;52.638;9.216;2023-07-31T05:20:34;100438.44;;;15.47;100.00
32033;BME280;31720;52.638;9.216;2023-07-31T05:23:35;100438.19;;;15.39;100.00
32033;BME280;31720;52.638;9.216;2023-07-31T05:26:36;100441.44;;;15.43;100.00
32033;BME280;31720;52.638;9.216;2023-07-31T05:29:40;100438.44;;;15.47;100.00
32033;BME280;31720;52.638;9.216;2023-07-31T05:32:41;100430.41;;;15.49;100.00
32033;BME280;31720;52.638;9.216;2023-07-31T05:35:43;100435.09;;;15.45;100.00
32033;BME280;31720;52.638;9.216;2023-07-31T05:38:45;100443.66;;;15.49;100.00
32033;BME280;31720;52.638;9.216;2023-07-31T05:41:47;100446.28;;;15.49;100.00
32033;BME280;31720;52.638;9.216;2023-07-31T05:44:50;100443.50;;;15.39;100.00
32033;BME280;31720;52.638;9.216;2023-07-31T05:47:51;100441.34;;;15.44;100.00
32033;BME280;31720;52.638;9.216;2023-07-31T05:50:52;100431.34;;;15.37;100.00
32033;BME280;31720;52.638;9.216;2023-07-31T05:53:54;100435.81;;;15.36;100.00
32033;BME280;31720;52.638;9.216;2023-07-31T05:56:55;100438.47;;;15.36;100.00
32033;BME280;31720;52.638;9.216;2023-07-31T05:59:58;100431.47;;;15.46;100.00
32033;BME280;31720;52.638;9.216;2023-07-31T06:02:59;100430.03;;;15.54;100.00
32033;BME280;31720;52.638;9.216;2023-07-31T06:06:01;100425.44;;;15.56;100.00
32033;BME280;31720;52.638;9.216;2023-07-31T06:09:02;100430.38;;;15.60;100.00
32033;BME280;31720;52.638;9.216;2023-07-31T06:12:05;100430.16;;;15.63;100.00
32033;BME280;31720;52.638;9.216;2023-07-31T06:15:08;100434.47;;;15.53;100.00
32033;BME280;31720;52.638;9.216;2023-07-31T06:18:10;100431.34;;;15.48;100.00
32033;BME280;31720;52.638;9.216;2023-07-31T06:21:11;100422.56;;;15.47;100.00
32033;BME280;31720;52.638;9.216;2023-07-31T06:24:13;100425.81;;;15.51;100.00
32033;BME280;31720;52.638;9.216;2023-07-31T06:27:19;100420.16;;;15.56;100.00
32033;BME280;31720;52.638;9.216;2023-07-31T06:30:21;100418.09;;;15.59;100.00
32033;BME280;31720;52.638;9.216;2023-07-31T06:33:23;100420.38;;;15.53;100.00
32033;BME280;31720;52.638;9.216;2023-07-31T06:36:24;100421.13;;;15.55;100.00
32033;BME280;31720;52.638;9.216;2023-07-31T06:39:26;100419.66;;;15.62;100.00
32033;BME280;31720;52.638;9.216;2023-07-31T06:42:27;100415.00;;;15.65;100.00
32033;BME280;31720;52.638;9.216;2023-07-31T06:45:30;100416.81;;;15.65;100.00
32033;BME280;31720;52.638;9.216;2023-07-31T06:48:32;100405.13;;;15.67;100.00
32033;BME280;31720;52.638;9.216;2023-07-31T06:51:33;100394.53;;;15.67;100.00
32033;BME280;31720;52.638;9.216;2023-07-31T06:54:36;100421.03;;;15.67;100.00
32033;BME280;31720;52.638;9.216;2023-07-31T06:57:37;100409.22;;;15.71;100.00
32033;BME280;31720;52.638;9.216;2023-07-31T07:00:41;100407.78;;;15.67;100.00
32033;BME280;31720;52.638;9.216;2023-07-31T07:03:42;100421.34;;;15.63;100.00
32033;BME280;31720;52.638;9.216;2023-07-31T07:06:43;100410.28;;;15.69;100.00
32033;BME280;31720;52.638;9.216;2023-07-31T07:09:45;100401.28;;;15.71;100.00
32033;BME280;31720;52.638;9.216;2023-07-31T07:12:47;100412.56;;;15.73;100.00
32033;BME280;31720;52.638;9.216;2023-07-31T07:15:51;100394.16;;;15.72;100.00
32033;BME280;31720;52.638;9.216;2023-07-31T07:18:52;100397.16;;;15.79;100.00
32033;BME280;31720;52.638;9.216;2023-07-31T07:21:54;100411.00;;;15.71;100.00
32033;BME280;31720;52.638;9.216;2023-07-31T07:24:56;100405.94;;;15.79;100.00
32033;BME280;31720;52.638;9.216;2023-07-31T07:27:57;100419.22;;;15.68;100.00
32033;BME280;31720;52.638;9.216;2023-07-31T07:31:00;100412.06;;;15.80;100.00
32033;BME280;31720;52.638;9.216;2023-07-31T07:34:01;100414.16;;;15.76;100.00
32033;BME280;31720;52.638;9.216;2023-07-31T07:37:04;100416.91;;;15.75;100.00
32033;BME280;31720;52.638;9.216;2023-07-31T07:40:07;100417.50;;;15.78;100.00
32033;BME280;31720;52.638;9.216;2023-07-31T07:43:08;100411.00;;;15.82;100.00
32033;BME280;31720;52.638;9.216;2023-07-31T07:46:11;100415.78;;;15.88;100.00
32033;BME280;31720;52.638;9.216;2023-07-31T07:49:12;100411.78;;;15.94;100.00
32033;BME280;31720;52.638;9.216;2023-07-31T07:52:14;100423.13;;;15.96;100.00
32033;BME280;31720;52.638;9.216;2023-07-31T07:55:15;100422.66;;;15.91;100.00
32033;BME280;31720;52.638;9.216;2023-07-31T07:58:17;100418.06;;;15.93;100.00
32033;BME280;31720;52.638;9.216;2023-07-31T08:01:20;100417.97;;;15.94;100.00
32033;BME280;31720;52.638;9.216;2023-07-31T08:04:21;100412.16;;;16.01;100.00
32033;BME280;31720;52.638;9.216;2023-07-31T08:07:23;100421.78;;;16.02;100.00
32033;BME280;31720;52.638;9.216;2023-07-31T08:10:24;100413.31;;;16.08;100.00
32033;BME280;31720;52.638;9.216;2023-07-31T08:13:26;100409.59;;;16.10;100.00
32033;BME280;31720;52.638;9.216;2023-07-31T08:16:28;100406.78;;;16.23;100.00
32033;BME280;31720;52.638;9.216;2023-07-31T08:19:30;100401.34;;;16.24;100.00
32033;BME280;31720;52.638;9.216;2023-07-31T08:22:31;100396.38;;;16.31;100.00
32033;BME280;31720;52.638;9.216;2023-07-31T08:25:34;100396.31;;;16.42;100.00
32033;BME280;31720;52.638;9.216;2023-07-31T08:28:36;100390.78;;;16.45;100.00
32033;BME280;31720;52.638;9.216;2023-07-31T08:31:39;100382.22;;;16.42;100.00
32033;BME280;31720;52.638;9.216;2023-07-31T08:34:40;100381.13;;;16.44;100.00
32033;BME280;31720;52.638;9.216;2023-07-31T08:37:42;100371.09;;;16.48;100.00
32033;BME280;31720;52.638;9.216;2023-07-31T08:40:43;100372.59;;;16.41;100.00
32033;BME280;31720;52.638;9.216;2023-07-31T08:43:45;100374.97;;;16.44;100.00
32033;BME280;31720;52.638;9.216;2023-07-31T08:46:49;100367.16;;;16.42;100.00
32033;BME280;31720;52.638;9.216;2023-07-31T08:49:51;100372.78;;;16.49;100.00
32033;BME280;31720;52.638;9.216;2023-07-31T08:52:53;100365.53;;;16.51;100.00
32033;BME280;31720;52.638;9.216;2023-07-31T08:55:56;100365.53;;;16.51;100.00
32033;BME280;31720;52.638;9.216;2023-07-31T08:59:01;100365.38;;;16.53;100.00
32033;BME280;31720;52.638;9.216;2023-07-31T09:02:08;100356.34;;;16.55;100.00
32033;BME280;31720;52.638;9.216;2023-07-31T09:05:10;100350.50;;;16.61;100.00
32033;BME280;31720;52.638;9.216;2023-07-31T09:08:13;100343.28;;;16.63;100.00
32033;BME280;31720;52.638;9.216;2023-07-31T09:11:15;100344.69;;;16.67;100.00
32033;BME280;31720;52.638;9.216;2023-07-31T09:14:17;100343.38;;;16.73;100.00
32033;BME280;31720;52.638;9.216;2023-07-31T09:17:30;100341.59;;;16.83;100.00
32033;BME280;31720;52.638;9.216;2023-07-31T09:20:32;100334.34;;;16.85;100.00
32033;BME280;31720;52.638;9.216;2023-07-31T09:23:41;100337.13;;;16.84;100.00
32033;BME280;31720;52.638;9.216;2023-07-31T09:26:43;100341.84;;;16.80;100.00
32033;BME280;31720;52.638;9.216;2023-07-31T09:29:44;100349.13;;;16.78;100.00
32033;BME280;31720;52.638;9.216;2023-07-31T09:32:48;100347.28;;;16.79;100.00
32033;BME280;31720;52.638;9.216;2023-07-31T09:35:51;100336.28;;;16.83;100.00
32033;BME280;31720;52.638;9.216;2023-07-31T09:38:52;100335.19;;;16.86;100.00
32033;BME280;31720;52.638;9.216;2023-07-31T09:41:55;100332.25;;;16.89;100.00
32033;BME280;31720;52.638;9.216;2023-07-31T09:45:06;100324.44;;;16.87;100.00
32033;BME280;31720;52.638;9.216;2023-07-31T09:48:11;100328.75;;;16.88;100.00
32033;BME280;31720;52.638;9.216;2023-07-31T09:51:12;100325.03;;;16.91;100.00
32033;BME280;31720;52.638;9.216;2023-07-31T09:54:15;100326.00;;;16.90;100.00
32033;BME280;31720;52.638;9.216;2023-07-31T09:57:17;100318.09;;;16.79;100.00
32033;BME280;31720;52.638;9.216;2023-07-31T10:00:19;100315.06;;;16.83;100.00
32033;BME280;31720;52.638;9.216;2023-07-31T10:03:24;100309.34;;;16.88;100.00
32033;BME280;31720;52.638;9.216;2023-07-31T10:06:27;100308.25;;;16.90;100.00
32033;BME280;31720;52.638;9.216;2023-07-31T10:09:29;100301.41;;;16.97;100.00
32033;BME280;31720;52.638;9.216;2023-07-31T10:12:33;100304.06;;;16.97;100.00
32033;BME280;31720;52.638;9.216;2023-07-31T10:15:35;100294.03;;;17.01;100.00
32033;BME280;31720;52.638;9.216;2023-07-31T10:18:39;100294.88;;;17.02;100.00
32033;BME280;31720;52.638;9.216;2023-07-31T10:21:42;100296.25;;;16.96;100.00
32033;BME280;31720;52.638;9.216;2023-07-31T10:24:44;100286.22;;;16.99;100.00
32033;BME280;31720;52.638;9.216;2023-07-31T10:27:47;100282.31;;;17.04;100.00
32033;BME280;31720;52.638;9.216;2023-07-31T10:30:49;100279.94;;;17.01;100.00
32033;BME280;31720;52.638;9.216;2023-07-31T10:33:53;100282.19;;;17.05;100.00
32033;BME280;31720;52.638;9.216;2023-07-31T10:37:19;100280.09;;;17.09;100.00
32033;BME280;31720;52.638;9.216;2023-07-31T10:40:24;100281.63;;;17.11;100.00
32033;BME280;31720;52.638;9.216;2023-07-31T10:43:26;100271.72;;;17.13;100.00
32033;BME280;31720;52.638;9.216;2023-07-31T10:46:28;100263.88;;;17.12;100.00
32033;BME280;31720;52.638;9.216;2023-07-31T10:49:32;100265.03;;;17.19;100.00
32033;BME280;31720;52.638;9.216;2023-07-31T10:52:34;100259.03;;;17.17;100.00
32033;BME280;31720;52.638;9.216;2023-07-31T10:55:40;100256.09;;;17.30;100.00
32033;BME280;31720;52.638;9.216;2023-07-31T10:58:44;100253.72;;;17.27;100.00
32033;BME280;31720;52.638;9.216;2023-07-31T11:01:52;100248.00;;;17.31;100.00
32033;BME280;31720;52.638;9.216;2023-07-31T11:05:08;100255.97;;;17.31;100.00
32033;BME280;31720;52.638;9.216;2023-07-31T11:08:12;100256.94;;;17.30;100.00
32033;BME280;31720;52.638;9.216;2023-07-31T11:11:15;100245.34;;;17.31;100.00
32033;BME280;31720;52.638;9.216;2023-07-31T11:14:17;100242.41;;;17.34;100.00
32033;BME280;31720;52.638;9.216;2023-07-31T11:17:18;100246.75;;;17.35;100.00
32033;BME280;31720;52.638;9.216;2023-07-31T11:20:21;100243.94;;;17.37;100.00
32033;BME280;31720;52.638;9.216;2023-07-31T11:23:23;100238.78;;;17.35;100.00
32033;BME280;31720;52.638;9.216;2023-07-31T11:26:25;100247.72;;;17.34;100.00
32033;BME280;31720;52.638;9.216;2023-07-31T11:29:27;100247.59;;;17.36;100.00
32033;BME280;31720;52.638;9.216;2023-07-31T11:32:28;100249.38;;;17.25;100.00
32033;BME280;31720;52.638;9.216;2023-07-31T11:35:32;100241.28;;;17.37;100.00
32033;BME280;31720;52.638;9.216;2023-07-31T11:38:34;100246.03;;;17.33;100.00
32033;BME280;31720;52.638;9.216;2023-07-31T11:41:36;100234.44;;;17.34;100.00
32033;BME280;31720;52.638;9.216;2023-07-31T11:44:38;100238.63;;;17.27;100.00
32033;BME280;31720;52.638;9.216;2023-07-31T11:47:40;100241.13;;;17.19;100.00
32033;BME280;31720;52.638;9.216;2023-07-31T11:50:42;100239.31;;;17.19;100.00
32033;BME280;31720;52.638;9.216;2023-07-31T11:53:48;100241.97;;;17.19;100.00
32033;BME280;31720;52.638;9.216;2023-07-31T11:56:52;100234.00;;;17.19;100.00
32033;BME280;31720;52.638;9.216;2023-07-31T11:59:54;100236.38;;;17.22;100.00
32033;BME280;31720;52.638;9.216;2023-07-31T12:02:56;100226.75;;;17.21;100.00
32033;BME280;31720;52.638;9.216;2023-07-31T12:05:59;100229.94;;;17.25;100.00
32033;BME280;31720;52.638;9.216;2023-07-31T12:09:02;100227.25;;;17.06;100.00
32033;BME280;31720;52.638;9.216;2023-07-31T12:12:08;100220.97;;;17.07;100.00
32033;BME280;31720;52.638;9.216;2023-07-31T12:15:18;100223.91;;;17.04;100.00
32033;BME280;31720;52.638;9.216;2023-07-31T12:18:21;100216.78;;;17.04;100.00
32033;BME280;31720;52.638;9.216;2023-07-31T12:21:27;100223.34;;;17.10;100.00
32033;BME280;31720;52.638;9.216;2023-07-31T12:24:28;100228.13;;;17.16;100.00
32033;BME280;31720;52.638;9.216;2023-07-31T12:27:32;100214.41;;;17.20;100.00
32033;BME280;31720;52.638;9.216;2023-07-31T12:30:34;100221.44;;;17.21;100.00
32033;BME280;31720;52.638;9.216;2023-07-31T12:33:37;100206.19;;;17.23;100.00
32033;BME280;31720;52.638;9.216;2023-07-31T12:36:42;100204.22;;;17.25;100.00
32033;BME280;31720;52.638;9.216;2023-07-31T12:39:43;100193.75;;;17.24;100.00
32033;BME280;31720;52.638;9.216;2023-07-31T12:42:45;100206.47;;;17.30;100.00
32033;BME280;31720;52.638;9.216;2023-07-31T12:45:46;100211.78;;;17.30;100.00
32033;BME280;31720;52.638;9.216;2023-07-31T12:48:48;100201.16;;;17.30;100.00
32033;BME280;31720;52.638;9.216;2023-07-31T12:51:51;100202.97;;;17.30;100.00
32033;BME280;31720;52.638;9.216;2023-07-31T12:54:54;100196.72;;;17.40;100.00
32033;BME280;31720;52.638;9.216;2023-07-31T12:57:55;100202.84;;;17.41;100.00
32033;BME280;31720;52.638;9.216;2023-07-31T13:00:57;100208.03;;;17.42;100.00
32033;BME280;31720;52.638;9.216;2023-07-31T13:03:58;100200.88;;;17.43;100.00
32033;BME280;31720;52.638;9.216;2023-07-31T13:07:01;100197.81;;;17.47;100.00
32033;BME280;31720;52.638;9.216;2023-07-31T13:10:03;100193.91;;;17.52;100.00
32033;BME280;31720;52.638;9.216;2023-07-31T13:13:04;100199.06;;;17.53;100.00
32033;BME280;31720;52.638;9.216;2023-07-31T13:16:06;100201.03;;;17.61;100.00
32033;BME280;31720;52.638;9.216;2023-07-31T13:19:07;100204.25;;;17.55;100.00
32033;BME280;31720;52.638;9.216;2023-07-31T13:22:10;100210.25;;;17.57;100.00
32033;BME280;31720;52.638;9.216;2023-07-31T13:25:11;100209.16;;;17.59;100.00
32033;BME280;31720;52.638;9.216;2023-07-31T13:28:13;100203.13;;;17.57;100.00
32033;BME280;31720;52.638;9.216;2023-07-31T13:31:14;100200.50;;;17.67;100.00
32033;BME280;31720;52.638;9.216;2023-07-31T13:34:16;100206.22;;;17.62;100.00
32033;BME280;31720;52.638;9.216;2023-07-31T13:37:18;100208.00;;;17.62;100.00
32033;BME280;31720;52.638;9.216;2023-07-31T13:40:21;100190.41;;;17.61;100.00
32033;BME280;31720;52.638;9.216;2023-07-31T13:43:22;100188.16;;;17.66;100.00
32033;BME280;31720;52.638;9.216;2023-07-31T13:46:24;100187.63;;;17.72;100.00
32033;BME280;31720;52.638;9.216;2023-07-31T13:49:25;100187.03;;;17.68;100.00
32033;BME280;31720;52.638;9.216;2023-07-31T13:52:28;100178.91;;;17.70;100.00
32033;BME280;31720;52.638;9.216;2023-07-31T13:55:29;100176.28;;;17.80;100.00
32033;BME280;31720;52.638;9.216;2023-07-31T13:58:33;100162.31;;;17.78;100.00
32033;BME280;31720;52.638;9.216;2023-07-31T14:01:34;100161.59;;;17.85;100.00
32033;BME280;31720;52.638;9.216;2023-07-31T14:04:35;100169.28;;;17.88;100.00
32033;BME280;31720;52.638;9.216;2023-07-31T14:07:38;100161.19;;;17.90;100.00
32033;BME280;31720;52.638;9.216;2023-07-31T14:10:40;100160.47;;;17.88;100.00
32033;BME280;31720;52.638;9.216;2023-07-31T14:13:41;100153.88;;;17.92;100.00
32033;BME280;31720;52.638;9.216;2023-07-31T14:16:42;100159.88;;;17.94;100.00
32033;BME280;31720;52.638;9.216;2023-07-31T14:19:44;100160.59;;;17.96;100.00
32033;BME280;31720;52.638;9.216;2023-07-31T14:22:46;100159.44;;;17.98;100.00
32033;BME280;31720;52.638;9.216;2023-07-31T14:25:48;100150.34;;;18.01;100.00
32033;BME280;31720;52.638;9.216;2023-07-31T14:28:49;100141.28;;;18.04;100.00
32033;BME280;31720;52.638;9.216;2023-07-31T14:31:50;100139.44;;;18.04;100.00
32033;BME280;31720;52.638;9.216;2023-07-31T14:34:52;100138.63;;;18.04;100.00
32033;BME280;31720;52.638;9.216;2023-07-31T14:37:56;100141.78;;;18.07;100.00
32033;BME280;31720;52.638;9.216;2023-07-31T14:40:57;100145.00;;;18.11;100.00
32033;BME280;31720;52.638;9.216;2023-07-31T14:43:58;100139.13;;;18.07;100.00
32033;BME280;31720;52.638;9.216;2023-07-31T14:47:00;100158.31;;;18.11;100.00
32033;BME280;31720;52.638;9.216;2023-07-31T14:50:01;100184.22;;;18.09;100.00
32033;BME280;31720;52.638;9.216;2023-07-31T14:53:04;100197.22;;;18.12;100.00
32033;BME280;31720;52.638;9.216;2023-07-31T14:56:06;100183.06;;;18.11;100.00
32033;BME280;31720;52.638;9.216;2023-07-31T14:59:07;100180.28;;;18.13;100.00
32033;BME280;31720;52.638;9.216;2023-07-31T15:02:10;100184.78;;;18.12;100.00
32033;BME280;31720;52.638;9.216;2023-07-31T15:05:11;100173.00;;;18.15;100.00
32033;BME280;31720;52.638;9.216;2023-07-31T15:08:14;100176.50;;;18.15;100.00
32033;BME280;31720;52.638;9.216;2023-07-31T15:11:15;100174.38;;;18.19;100.00
32033;BME280;31720;52.638;9.216;2023-07-31T15:14:18;100179.84;;;18.17;100.00
32033;BME280;31720;52.638;9.216;2023-07-31T15:17:20;100173.00;;;18.15;100.00
32033;BME280;31720;52.638;9.216;2023-07-31T15:20:21;100158.31;;;18.11;100.00
32033;BME280;31720;52.638;9.216;2023-07-31T15:23:24;100148.66;;;18.10;100.00
32033;BME280;31720;52.638;9.216;2023-07-31T15:26:26;100134.25;;;18.03;100.00
32033;BME280;31720;52.638;9.216;2023-07-31T15:29:27;100132.69;;;18.10;100.00
32033;BME280;31720;52.638;9.216;2023-07-31T15:32:29;100130.28;;;18.16;100.00
32033;BME280;31720;52.638;9.216;2023-07-31T15:35:30;100124.41;;;18.22;100.00
32033;BME280;31720;52.638;9.216;2023-07-31T15:38:33;100114.59;;;18.23;100.00
32033;BME280;31720;52.638;9.216;2023-07-31T15:41:34;100124.25;;;18.24;100.00